sensor_id;sensor_type;location;lat;lon;timestamp;temperature;humidity
13186;DHT22;6658;53.080;7.428;2023-07-31T00:00:12;16.40;99.90
13186;DHT22;6658;53.080;7.428;2023-07-31T00:02:38;16.40;99.90
13186;DHT22;6658;53.080;7.428;2023-07-31T00:05:04;16.40;99.90
13186;DHT22;6658;53.080;7.428;2023-07-31T00:07:31;16.40;99.90
13186;DHT22;6658;53.080;7.428;2023-07-31T00:09:58;16.40;99.90
13186;DHT22;6658;53.080;7.428;2023-07-31T00:12:28;16.40;99.90
13186;DHT22;6658;53.080;7.428;2023-07-31T00:14:53;16.40;99.90
13186;DHT22;6658;53.080;7.428;2023-07-31T00:17:19;16.40;99.90
13186;DHT22;6658;53.080;7.428;2023-07-31T00:19:45;16.40;99.90
13186;DHT22;6658;53.080;7.428;2023-07-31T00:22:16;16.40;99.90
13186;DHT22;6658;53.080;7.428;2023-07-31T00:24:42;16.30;99.90
13186;DHT22;6658;53.080;7.428;2023-07-31T00:27:07;16.40;99.90
13186;DHT22;6658;53.080;7.428;2023-07-31T00:29:33;16.30;99.90
13186;DHT22;6658;53.080;7.428;2023-07-31T00:31:58;16.30;99.90
13186;DHT22;6658;53.080;7.428;2023-07-31T00:34:24;16.30;99.90
13186;DHT22;6658;53.080;7.428;2023-07-31T00:36:50;16.30;99.90
13186;DHT22;6658;53.080;7.428;2023-07-31T00:39:15;16.30;99.90
13186;DHT22;6658;53.080;7.428;2023-07-31T00:41:42;16.20;99.90
13186;DHT22;6658;53.080;7.428;2023-07-31T00:44:08;16.20;99.90
13186;DHT22;6658;53.080;7.428;2023-07-31T00:46:34;16.10;99.90
13186;DHT22;6658;53.080;7.428;2023-07-31T00:48:59;16.00;99.90
13186;DHT22;6658;53.080;7.428;2023-07-31T00:51:25;16.00;99.90
13186;DHT22;6658;53.080;7.428;2023-07-31T00:53:51;15.90;99.90
13186;DHT22;6658;53.080;7.428;2023-07-31T00:56:19;15.80;99.90
13186;DHT22;6658;53.080;7.428;2023-07-31T00:58:45;15.80;99.90
13186;DHT22;6658;53.080;7.428;2023-07-31T01:01:11;15.80;99.90
13186;DHT22;6658;53.080;7.428;2023-07-31T01:03:36;15.70;99.90
13186;DHT22;6658;53.080;7.428;2023-07-31T01:06:15;15.70;99.90
13186;DHT22;6658;53.080;7.428;2023-07-31T01:11:31;15.60;99.90
13186;DHT22;6658;53.080;7.428;2023-07-31T01:13:58;15.50;99.90
13186;DHT22;6658;53.080;7.428;2023-07-31T01:16:27;15.50;99.90
13186;DHT22;6658;53.080;7.428;2023-07-31T01:18:53;15.40;99.90
13186;DHT22;6658;53.080;7.428;2023-07-31T01:26:40;15.40;99.90
13186;DHT22;6658;53.080;7.428;2023-07-31T01:29:17;15.30;99.90
13186;DHT22;6658;53.080;7.428;2023-07-31T01:31:48;15.30;99.90
13186;DHT22;6658;53.080;7.428;2023-07-31T01:34:17;15.20;99.90
13186;DHT22;6658;53.080;7.428;2023-07-31T01:36:44;15.30;99.90
13186;DHT22;6658;53.080;7.428;2023-07-31T01:39:10;15.30;99.90
13186;DHT22;6658;53.080;7.428;2023-07-31T01:41:35;15.20;99.90
13186;DHT22;6658;53.080;7.428;2023-07-31T01:44:01;15.30;99.90
13186;DHT22;6658;53.080;7.428;2023-07-31T01:46:27;15.30;99.90
13186;DHT22;6658;53.080;7.428;2023-07-31T01:48:53;15.20;99.90
13186;DHT22;6658;53.080;7.428;2023-07-31T01:51:18;15.20;99.90
13186;DHT22;6658;53.080;7.428;2023-07-31T01:53:44;15.20;99.90
13186;DHT22;6658;53.080;7.428;2023-07-31T01:56:10;15.20;99.90
13186;DHT22;6658;53.080;7.428;2023-07-31T01:58:36;15.20;99.90
13186;DHT22;6658;53.080;7.428;2023-07-31T02:01:02;15.20;99.90
13186;DHT22;6658;53.080;7.428;2023-07-31T02:03:27;15.20;99.90
13186;DHT22;6658;53.080;7.428;2023-07-31T02:05:54;15.20;99.90
13186;DHT22;6658;53.080;7.428;2023-07-31T02:08:20;15.20;99.90
13186;DHT22;6658;53.080;7.428;2023-07-31T02:10:46;15.20;99.90
13186;DHT22;6658;53.080;7.428;2023-07-31T02:13:11;15.20;99.90
13186;DHT22;6658;53.080;7.428;2023-07-31T02:15:37;15.20;99.90
13186;DHT22;6658;53.080;7.428;2023-07-31T02:18:03;15.20;99.90
13186;DHT22;6658;53.080;7.428;2023-07-31T02:20:29;15.20;99.90
13186;DHT22;6658;53.080;7.428;2023-07-31T02:22:54;15.20;99.90
13186;DHT22;6658;53.080;7.428;2023-07-31T02:25:21;15.20;99.90
13186;DHT22;6658;53.080;7.428;2023-07-31T02:27:46;15.20;99.90
13186;DHT22;6658;53.080;7.428;2023-07-31T02:30:12;15.30;99.90
13186;DHT22;6658;53.080;7.428;2023-07-31T02:32:38;15.20;99.90
13186;DHT22;6658;53.080;7.428;2023-07-31T02:35:04;15.30;99.90
13186;DHT22;6658;53.080;7.428;2023-07-31T02:37:29;15.30;99.90
13186;DHT22;6658;53.080;7.428;2023-07-31T02:39:55;15.20;99.90
13186;DHT22;6658;53.080;7.428;2023-07-31T02:42:21;15.30;99.90
13186;DHT22;6658;53.080;7.428;2023-07-31T02:44:46;15.30;99.90
13186;DHT22;6658;53.080;7.428;2023-07-31T02:47:12;15.20;99.90
13186;DHT22;6658;53.080;7.428;2023-07-31T02:49:38;15.20;99.90
13186;DHT22;6658;53.080;7.428;2023-07-31T02:52:04;15.20;99.90
13186;DHT22;6658;53.080;7.428;2023-07-31T02:54:33;15.20;99.90
13186;DHT22;6658;53.080;7.428;2023-07-31T02:56:59;15.30;99.90
13186;DHT22;6658;53.080;7.428;2023-07-31T02:59:25;15.30;99.90
13186;DHT22;6658;53.080;7.428;2023-07-31T03:01:51;15.20;99.90
13186;DHT22;6658;53.080;7.428;2023-07-31T03:04:17;15.30;99.90
13186;DHT22;6658;53.080;7.428;2023-07-31T03:06:43;15.30;99.90
13186;DHT22;6658;53.080;7.428;2023-07-31T03:09:08;15.30;99.90
13186;DHT22;6658;53.080;7.428;2023-07-31T03:11:34;15.30;99.90
13186;DHT22;6658;53.080;7.428;2023-07-31T03:13:59;15.20;99.90
13186;DHT22;6658;53.080;7.428;2023-07-31T03:16:25;15.20;99.90
13186;DHT22;6658;53.080;7.428;2023-07-31T03:18:51;15.20;99.90
13186;DHT22;6658;53.080;7.428;2023-07-31T03:21:16;15.20;99.90
13186;DHT22;6658;53.080;7.428;2023-07-31T03:23:42;15.20;99.90
13186;DHT22;6658;53.080;7.428;2023-07-31T03:26:09;15.30;99.90
13186;DHT22;6658;53.080;7.428;2023-07-31T03:28:34;15.20;99.90
13186;DHT22;6658;53.080;7.428;2023-07-31T03:31:00;15.30;99.90
13186;DHT22;6658;53.080;7.428;2023-07-31T03:33:26;15.20;99.90
13186;DHT22;6658;53.080;7.428;2023-07-31T03:35:52;15.20;99.90
13186;DHT22;6658;53.080;7.428;2023-07-31T03:38:18;15.20;99.90
13186;DHT22;6658;53.080;7.428;2023-07-31T03:40:44;15.20;99.90
13186;DHT22;6658;53.080;7.428;2023-07-31T03:43:10;15.20;99.90
13186;DHT22;6658;53.080;7.428;2023-07-31T03:45:36;15.20;99.90
13186;DHT22;6658;53.080;7.428;2023-07-31T03:48:01;15.20;99.90
13186;DHT22;6658;53.080;7.428;2023-07-31T03:50:27;15.20;99.90
13186;DHT22;6658;53.080;7.428;2023-07-31T03:52:53;15.20;99.90
13186;DHT22;6658;53.080;7.428;2023-07-31T03:55:19;15.20;99.90
13186;DHT22;6658;53.080;7.428;2023-07-31T03:57:44;15.20;99.90
13186;DHT22;6658;53.080;7.428;2023-07-31T04:00:10;15.20;99.90
13186;DHT22;6658;53.080;7.428;2023-07-31T04:02:36;15.20;99.90
13186;DHT22;6658;53.080;7.428;2023-07-31T04:05:02;15.20;99.90
13186;DHT22;6658;53.080;7.428;2023-07-31T04:07:28;15.20;99.90
13186;DHT22;6658;53.080;7.428;2023-07-31T04:09:53;15.20;99.90
13186;DHT22;6658;53.080;7.428;2023-07-31T04:12:19;15.30;99.90
13186;DHT22;6658;53.080;7.428;2023-07-31T04:14:45;15.30;99.90
13186;DHT22;6658;53.080;7.428;2023-07-31T04:17:10;15.30;99.90
13186;DHT22;6658;53.080;7.428;2023-07-31T04:19:36;15.30;99.90
13186;DHT22;6658;53.080;7.428;2023-07-31T04:22:03;15.30;99.90
13186;DHT22;6658;53.080;7.428;2023-07-31T04:24:29;15.40;99.90
13186;DHT22;6658;53.080;7.428;2023-07-31T04:26:55;15.40;99.90
13186;DHT22;6658;53.080;7.428;2023-07-31T04:29:21;15.40;99.90
13186;DHT22;6658;53.080;7.428;2023-07-31T04:31:48;15.40;99.90
13186;DHT22;6658;53.080;7.428;2023-07-31T04:34:14;15.40;99.90
13186;DHT22;6658;53.080;7.428;2023-07-31T04:36:39;15.40;99.90
13186;DHT22;6658;53.080;7.428;2023-07-31T04:39:06;15.50;99.90
13186;DHT22;6658;53.080;7.428;2023-07-31T04:41:31;15.50;99.90
13186;DHT22;6658;53.080;7.428;2023-07-31T04:43:57;15.50;99.90
13186;DHT22;6658;53.080;7.428;2023-07-31T04:46:23;15.50;99.90
13186;DHT22;6658;53.080;7.428;2023-07-31T04:48:48;15.60;99.90
13186;DHT22;6658;53.080;7.428;2023-07-31T04:51:14;15.60;99.90
13186;DHT22;6658;53.080;7.428;2023-07-31T04:53:40;15.60;99.90
13186;DHT22;6658;53.080;7.428;2023-07-31T04:56:05;15.60;99.90
13186;DHT22;6658;53.080;7.428;2023-07-31T04:58:31;15.70;99.90
13186;DHT22;6658;53.080;7.428;2023-07-31T05:00:57;15.70;99.90
13186;DHT22;6658;53.080;7.428;2023-07-31T05:03:22;15.80;99.90
13186;DHT22;6658;53.080;7.428;2023-07-31T05:05:48;15.80;99.90
13186;DHT22;6658;53.080;7.428;2023-07-31T05:08:14;15.80;99.90
13186;DHT22;6658;53.080;7.428;2023-07-31T05:10:39;15.80;99.90
13186;DHT22;6658;53.080;7.428;2023-07-31T05:13:05;15.80;99.90
13186;DHT22;6658;53.080;7.428;2023-07-31T05:15:31;15.80;99.90
13186;DHT22;6658;53.080;7.428;2023-07-31T05:17:56;15.80;99.90
13186;DHT22;6658;53.080;7.428;2023-07-31T05:20:22;15.80;99.90
13186;DHT22;6658;53.080;7.428;2023-07-31T05:22:48;15.90;99.90
13186;DHT22;6658;53.080;7.428;2023-07-31T05:25:14;15.90;99.90
13186;DHT22;6658;53.080;7.428;2023-07-31T05:27:39;15.90;99.90
13186;DHT22;6658;53.080;7.428;2023-07-31T05:30:05;15.90;99.90
13186;DHT22;6658;53.080;7.428;2023-07-31T05:32:32;16.00;99.90
13186;DHT22;6658;53.080;7.428;2023-07-31T05:34:57;16.00;99.90
13186;DHT22;6658;53.080;7.428;2023-07-31T05:37:23;16.00;99.90
13186;DHT22;6658;53.080;7.428;2023-07-31T05:39:49;16.10;99.90
13186;DHT22;6658;53.080;7.428;2023-07-31T05:42:15;16.10;99.90
13186;DHT22;6658;53.080;7.428;2023-07-31T05:44:40;16.10;99.90
13186;DHT22;6658;53.080;7.428;2023-07-31T05:47:06;16.10;99.90
13186;DHT22;6658;53.080;7.428;2023-07-31T05:49:32;16.10;99.90
13186;DHT22;6658;53.080;7.428;2023-07-31T05:51:57;16.20;99.90
13186;DHT22;6658;53.080;7.428;2023-07-31T05:54:23;16.10;99.90
13186;DHT22;6658;53.080;7.428;2023-07-31T05:56:49;16.10;99.90
13186;DHT22;6658;53.080;7.428;2023-07-31T05:59:16;16.10;99.90
13186;DHT22;6658;53.080;7.428;2023-07-31T06:01:42;16.10;99.90
13186;DHT22;6658;53.080;7.428;2023-07-31T06:04:07;16.20;99.90
13186;DHT22;6658;53.080;7.428;2023-07-31T06:06:33;16.20;99.90
13186;DHT22;6658;53.080;7.428;2023-07-31T06:08:59;16.20;99.90
13186;DHT22;6658;53.080;7.428;2023-07-31T06:11:25;16.30;99.90
13186;DHT22;6658;53.080;7.428;2023-07-31T06:13:51;16.30;99.90
13186;DHT22;6658;53.080;7.428;2023-07-31T06:16:16;16.30;99.90
13186;DHT22;6658;53.080;7.428;2023-07-31T06:18:42;16.30;99.90
13186;DHT22;6658;53.080;7.428;2023-07-31T06:21:09;16.30;99.90
13186;DHT22;6658;53.080;7.428;2023-07-31T06:23:35;16.30;99.90
13186;DHT22;6658;53.080;7.428;2023-07-31T06:26:01;16.30;99.90
13186;DHT22;6658;53.080;7.428;2023-07-31T06:28:31;16.30;99.90
13186;DHT22;6658;53.080;7.428;2023-07-31T06:30:57;16.20;99.90
13186;DHT22;6658;53.080;7.428;2023-07-31T06:33:23;16.20;99.90
13186;DHT22;6658;53.080;7.428;2023-07-31T06:35:49;16.20;99.90
13186;DHT22;6658;53.080;7.428;2023-07-31T06:38:14;16.20;99.90
13186;DHT22;6658;53.080;7.428;2023-07-31T06:40:40;16.20;99.90
13186;DHT22;6658;53.080;7.428;2023-07-31T06:43:06;16.30;99.90
13186;DHT22;6658;53.080;7.428;2023-07-31T06:45:36;16.40;99.90
13186;DHT22;6658;53.080;7.428;2023-07-31T06:48:03;16.40;99.90
13186;DHT22;6658;53.080;7.428;2023-07-31T06:50:32;16.40;99.90
13186;DHT22;6658;53.080;7.428;2023-07-31T06:52:58;16.50;99.90
13186;DHT22;6658;53.080;7.428;2023-07-31T06:55:25;16.50;99.90
13186;DHT22;6658;53.080;7.428;2023-07-31T06:57:53;16.50;99.90
13186;DHT22;6658;53.080;7.428;2023-07-31T07:00:20;16.60;99.90
13186;DHT22;6658;53.080;7.428;2023-07-31T07:02:46;16.60;99.90
13186;DHT22;6658;53.080;7.428;2023-07-31T07:05:16;16.60;99.90
13186;DHT22;6658;53.080;7.428;2023-07-31T07:07:43;16.70;99.90
13186;DHT22;6658;53.080;7.428;2023-07-31T07:10:09;16.70;99.90
13186;DHT22;6658;53.080;7.428;2023-07-31T07:12:35;16.80;99.90
13186;DHT22;6658;53.080;7.428;2023-07-31T07:15:01;16.90;99.90
13186;DHT22;6658;53.080;7.428;2023-07-31T07:17:28;17.00;99.90
13186;DHT22;6658;53.080;7.428;2023-07-31T07:19:56;17.30;99.90
13186;DHT22;6658;53.080;7.428;2023-07-31T07:22:22;17.30;99.90
13186;DHT22;6658;53.080;7.428;2023-07-31T07:24:48;17.30;99.90
13186;DHT22;6658;53.080;7.428;2023-07-31T07:27:14;17.30;99.90
13186;DHT22;6658;53.080;7.428;2023-07-31T07:29:40;17.20;99.90
13186;DHT22;6658;53.080;7.428;2023-07-31T07:32:06;17.30;99.90
13186;DHT22;6658;53.080;7.428;2023-07-31T07:34:32;17.40;99.90
13186;DHT22;6658;53.080;7.428;2023-07-31T07:36:57;17.30;99.90
13186;DHT22;6658;53.080;7.428;2023-07-31T07:39:23;17.20;99.90
13186;DHT22;6658;53.080;7.428;2023-07-31T07:41:49;17.20;99.90
13186;DHT22;6658;53.080;7.428;2023-07-31T07:44:14;17.30;99.90
13186;DHT22;6658;53.080;7.428;2023-07-31T07:46:40;17.20;99.90
13186;DHT22;6658;53.080;7.428;2023-07-31T07:49:06;17.30;99.90
13186;DHT22;6658;53.080;7.428;2023-07-31T07:51:32;17.30;99.90
13186;DHT22;6658;53.080;7.428;2023-07-31T07:53:58;17.30;99.90
13186;DHT22;6658;53.080;7.428;2023-07-31T07:56:26;17.40;99.90
13186;DHT22;6658;53.080;7.428;2023-07-31T07:58:52;17.40;99.90
13186;DHT22;6658;53.080;7.428;2023-07-31T08:01:21;17.40;99.90
13186;DHT22;6658;53.080;7.428;2023-07-31T08:03:48;17.40;99.90
13186;DHT22;6658;53.080;7.428;2023-07-31T08:06:14;17.50;99.90
13186;DHT22;6658;53.080;7.428;2023-07-31T08:08:40;17.50;99.90
13186;DHT22;6658;53.080;7.428;2023-07-31T08:11:06;17.50;99.90
13186;DHT22;6658;53.080;7.428;2023-07-31T08:13:32;17.60;99.90
13186;DHT22;6658;53.080;7.428;2023-07-31T08:15:58;17.80;99.90
13186;DHT22;6658;53.080;7.428;2023-07-31T08:18:23;18.20;99.90
13186;DHT22;6658;53.080;7.428;2023-07-31T08:20:49;18.20;99.90
13186;DHT22;6658;53.080;7.428;2023-07-31T08:23:15;18.30;99.90
13186;DHT22;6658;53.080;7.428;2023-07-31T08:25:40;18.20;99.90
13186;DHT22;6658;53.080;7.428;2023-07-31T08:28:06;18.20;99.90
13186;DHT22;6658;53.080;7.428;2023-07-31T08:30:32;18.20;99.90
13186;DHT22;6658;53.080;7.428;2023-07-31T08:33:01;18.00;99.90
13186;DHT22;6658;53.080;7.428;2023-07-31T08:35:28;17.90;99.90
13186;DHT22;6658;53.080;7.428;2023-07-31T08:37:54;17.80;99.90
13186;DHT22;6658;53.080;7.428;2023-07-31T08:40:20;17.80;99.90
13186;DHT22;6658;53.080;7.428;2023-07-31T08:42:48;17.80;99.90
13186;DHT22;6658;53.080;7.428;2023-07-31T08:45:19;17.70;99.90
13186;DHT22;6658;53.080;7.428;2023-07-31T08:47:49;17.70;99.90
13186;DHT22;6658;53.080;7.428;2023-07-31T08:50:17;17.60;99.90
13186;DHT22;6658;53.080;7.428;2023-07-31T08:52:45;17.60;99.90
13186;DHT22;6658;53.080;7.428;2023-07-31T08:55:11;17.60;99.90
13186;DHT22;6658;53.080;7.428;2023-07-31T08:57:38;17.50;99.90
13186;DHT22;6658;53.080;7.428;2023-07-31T09:00:08;17.60;99.90
13186;DHT22;6658;53.080;7.428;2023-07-31T09:05:19;17.60;99.90
13186;DHT22;6658;53.080;7.428;2023-07-31T09:07:47;17.60;99.90
13186;DHT22;6658;53.080;7.428;2023-07-31T09:10:13;17.70;99.90
13186;DHT22;6658;53.080;7.428;2023-07-31T09:12:39;17.80;99.90
13186;DHT22;6658;53.080;7.428;2023-07-31T09:15:05;17.80;99.90
13186;DHT22;6658;53.080;7.428;2023-07-31T09:17:36;17.80;99.90
13186;DHT22;6658;53.080;7.428;2023-07-31T09:20:16;17.90;99.90
13186;DHT22;6658;53.080;7.428;2023-07-31T09:22:42;17.90;99.90
13186;DHT22;6658;53.080;7.428;2023-07-31T09:25:21;18.00;99.90
13186;DHT22;6658;53.080;7.428;2023-07-31T09:27:53;18.00;99.90
13186;DHT22;6658;53.080;7.428;2023-07-31T09:30:19;18.10;99.90
13186;DHT22;6658;53.080;7.428;2023-07-31T09:32:46;18.20;99.90
13186;DHT22;6658;53.080;7.428;2023-07-31T09:37:57;18.40;99.90
13186;DHT22;6658;53.080;7.428;2023-07-31T09:40:43;18.50;99.90
13186;DHT22;6658;53.080;7.428;2023-07-31T09:43:10;18.70;99.90
13186;DHT22;6658;53.080;7.428;2023-07-31T09:45:40;18.80;99.90
13186;DHT22;6658;53.080;7.428;2023-07-31T09:48:17;18.80;99.90
13186;DHT22;6658;53.080;7.428;2023-07-31T09:50:45;18.90;99.90
13186;DHT22;6658;53.080;7.428;2023-07-31T09:53:11;18.90;99.90
13186;DHT22;6658;53.080;7.428;2023-07-31T09:55:37;18.90;99.90
13186;DHT22;6658;53.080;7.428;2023-07-31T09:58:08;18.80;99.90
13186;DHT22;6658;53.080;7.428;2023-07-31T10:00:34;18.70;99.90
13186;DHT22;6658;53.080;7.428;2023-07-31T10:03:03;18.70;99.90
13186;DHT22;6658;53.080;7.428;2023-07-31T10:05:49;18.70;99.90
13186;DHT22;6658;53.080;7.428;2023-07-31T10:08:17;18.80;99.90
13186;DHT22;6658;53.080;7.428;2023-07-31T10:10:46;18.90;99.90
13186;DHT22;6658;53.080;7.428;2023-07-31T10:13:12;19.10;99.90
13186;DHT22;6658;53.080;7.428;2023-07-31T10:15:38;19.20;99.90
13186;DHT22;6658;53.080;7.428;2023-07-31T10:18:06;19.30;99.90
13186;DHT22;6658;53.080;7.428;2023-07-31T10:20:33;19.40;99.90
13186;DHT22;6658;53.080;7.428;2023-07-31T10:22:59;19.60;99.90
13186;DHT22;6658;53.080;7.428;2023-07-31T10:25:26;19.70;99.90
13186;DHT22;6658;53.080;7.428;2023-07-31T10:27:53;19.80;99.90
13186;DHT22;6658;53.080;7.428;2023-07-31T10:30:22;19.80;99.90
13186;DHT22;6658;53.080;7.428;2023-07-31T10:32:51;19.80;99.90
13186;DHT22;6658;53.080;7.428;2023-07-31T10:35:20;19.80;99.90
13186;DHT22;6658;53.080;7.428;2023-07-31T10:37:48;19.80;99.90
13186;DHT22;6658;53.080;7.428;2023-07-31T10:40:25;19.80;99.90
13186;DHT22;6658;53.080;7.428;2023-07-31T10:42:52;19.70;99.90
13186;DHT22;6658;53.080;7.428;2023-07-31T10:45:44;19.60;99.90
13186;DHT22;6658;53.080;7.428;2023-07-31T10:48:15;19.60;99.90
13186;DHT22;6658;53.080;7.428;2023-07-31T10:53:30;19.50;99.90
13186;DHT22;6658;53.080;7.428;2023-07-31T10:56:04;19.50;99.90
13186;DHT22;6658;53.080;7.428;2023-07-31T10:58:30;19.50;99.90
13186;DHT22;6658;53.080;7.428;2023-07-31T11:01:04;19.50;99.90
13186;DHT22;6658;53.080;7.428;2023-07-31T11:03:47;19.50;99.90
13186;DHT22;6658;53.080;7.428;2023-07-31T11:06:15;19.50;99.90
13186;DHT22;6658;53.080;7.428;2023-07-31T11:08:46;19.50;99.90
13186;DHT22;6658;53.080;7.428;2023-07-31T11:11:14;19.60;99.90
13186;DHT22;6658;53.080;7.428;2023-07-31T11:16:19;19.90;99.90
13186;DHT22;6658;53.080;7.428;2023-07-31T11:18:46;20.10;99.90
13186;DHT22;6658;53.080;7.428;2023-07-31T11:21:17;20.20;99.90
13186;DHT22;6658;53.080;7.428;2023-07-31T11:23:51;20.20;99.90
13186;DHT22;6658;53.080;7.428;2023-07-31T11:26:17;20.20;99.90
13186;DHT22;6658;53.080;7.428;2023-07-31T11:28:46;20.30;99.90
13186;DHT22;6658;53.080;7.428;2023-07-31T11:31:11;20.30;99.90
13186;DHT22;6658;53.080;7.428;2023-07-31T11:33:37;20.20;99.90
13186;DHT22;6658;53.080;7.428;2023-07-31T11:36:03;20.20;99.90
13186;DHT22;6658;53.080;7.428;2023-07-31T11:38:31;20.20;99.90
13186;DHT22;6658;53.080;7.428;2023-07-31T11:40:59;20.20;99.90
13186;DHT22;6658;53.080;7.428;2023-07-31T11:43:25;20.20;99.90
13186;DHT22;6658;53.080;7.428;2023-07-31T11:45:54;20.20;99.90
13186;DHT22;6658;53.080;7.428;2023-07-31T11:48:28;20.20;99.90
13186;DHT22;6658;53.080;7.428;2023-07-31T11:51:04;20.40;99.90
13186;DHT22;6658;53.080;7.428;2023-07-31T11:56:09;20.60;99.90
13186;DHT22;6658;53.080;7.428;2023-07-31T11:58:37;20.50;99.90
13186;DHT22;6658;53.080;7.428;2023-07-31T12:01:04;20.50;99.90
13186;DHT22;6658;53.080;7.428;2023-07-31T12:03:31;20.60;99.90
13186;DHT22;6658;53.080;7.428;2023-07-31T12:05:59;20.60;99.90
13186;DHT22;6658;53.080;7.428;2023-07-31T12:08:25;20.60;99.90
13186;DHT22;6658;53.080;7.428;2023-07-31T12:10:52;20.40;99.90
13186;DHT22;6658;53.080;7.428;2023-07-31T12:13:26;20.30;99.90
13186;DHT22;6658;53.080;7.428;2023-07-31T12:15:56;20.20;99.90
13186;DHT22;6658;53.080;7.428;2023-07-31T12:18:24;20.10;99.90
13186;DHT22;6658;53.080;7.428;2023-07-31T12:20:56;20.00;99.90
13186;DHT22;6658;53.080;7.428;2023-07-31T12:23:32;19.90;99.90
13186;DHT22;6658;53.080;7.428;2023-07-31T12:26:03;19.80;99.90
13186;DHT22;6658;53.080;7.428;2023-07-31T12:28:29;19.80;99.90
13186;DHT22;6658;53.080;7.428;2023-07-31T12:31:00;19.80;99.90
13186;DHT22;6658;53.080;7.428;2023-07-31T12:33:31;20.00;99.90
13186;DHT22;6658;53.080;7.428;2023-07-31T12:36:00;20.00;99.90
13186;DHT22;6658;53.080;7.428;2023-07-31T12:38:26;19.90;99.90
13186;DHT22;6658;53.080;7.428;2023-07-31T12:40:51;19.80;99.90
13186;DHT22;6658;53.080;7.428;2023-07-31T12:43:17;19.70;99.90
13186;DHT22;6658;53.080;7.428;2023-07-31T12:45:43;19.50;99.90
13186;DHT22;6658;53.080;7.428;2023-07-31T12:48:09;19.30;99.90
13186;DHT22;6658;53.080;7.428;2023-07-31T12:50:35;19.10;99.90
13186;DHT22;6658;53.080;7.428;2023-07-31T12:53:02;18.90;99.90
13186;DHT22;6658;53.080;7.428;2023-07-31T12:55:31;18.80;99.90
13186;DHT22;6658;53.080;7.428;2023-07-31T12:58:02;18.70;99.90
13186;DHT22;6658;53.080;7.428;2023-07-31T13:00:28;18.80;99.90
13186;DHT22;6658;53.080;7.428;2023-07-31T13:02:54;18.90;99.90
13186;DHT22;6658;53.080;7.428;2023-07-31T13:05:20;19.00;99.90
13186;DHT22;6658;53.080;7.428;2023-07-31T13:07:47;19.10;99.90
13186;DHT22;6658;53.080;7.428;2023-07-31T13:10:12;19.20;99.90
13186;DHT22;6658;53.080;7.428;2023-07-31T13:12:38;19.20;99.90
13186;DHT22;6658;53.080;7.428;2023-07-31T13:15:05;19.10;99.90
13186;DHT22;6658;53.080;7.428;2023-07-31T13:17:31;19.00;99.90
13186;DHT22;6658;53.080;7.428;2023-07-31T13:19:57;18.90;99.90
13186;DHT22;6658;53.080;7.428;2023-07-31T13:22:23;18.90;99.90
13186;DHT22;6658;53.080;7.428;2023-07-31T13:24:49;19.00;99.90
13186;DHT22;6658;53.080;7.428;2023-07-31T13:27:15;18.90;99.90
13186;DHT22;6658;53.080;7.428;2023-07-31T13:29:45;19.00;99.90
13186;DHT22;6658;53.080;7.428;2023-07-31T13:32:11;19.10;99.90
13186;DHT22;6658;53.080;7.428;2023-07-31T13:34:37;19.10;99.90
13186;DHT22;6658;53.080;7.428;2023-07-31T13:37:03;19.20;99.90
13186;DHT22;6658;53.080;7.428;2023-07-31T13:39:31;19.30;99.90
13186;DHT22;6658;53.080;7.428;2023-07-31T13:41:57;19.40;99.90
13186;DHT22;6658;53.080;7.428;2023-07-31T13:44:23;19.60;99.90
13186;DHT22;6658;53.080;7.428;2023-07-31T13:46:49;19.70;99.90
13186;DHT22;6658;53.080;7.428;2023-07-31T13:49:14;19.70;99.90
13186;DHT22;6658;53.080;7.428;2023-07-31T13:51:40;19.80;99.90
13186;DHT22;6658;53.080;7.428;2023-07-31T13:54:06;19.90;99.90
13186;DHT22;6658;53.080;7.428;2023-07-31T13:56:32;20.00;99.90
13186;DHT22;6658;53.080;7.428;2023-07-31T13:58:58;20.00;99.90
13186;DHT22;6658;53.080;7.428;2023-07-31T14:01:26;19.90;99.90
13186;DHT22;6658;53.080;7.428;2023-07-31T14:03:51;19.90;99.90
13186;DHT22;6658;53.080;7.428;2023-07-31T14:06:17;19.80;99.90
13186;DHT22;6658;53.080;7.428;2023-07-31T14:08:43;19.90;99.90
13186;DHT22;6658;53.080;7.428;2023-07-31T14:11:08;20.00;99.90
13186;DHT22;6658;53.080;7.428;2023-07-31T14:13:34;20.20;99.90
13186;DHT22;6658;53.080;7.428;2023-07-31T14:16:00;20.40;99.90
13186;DHT22;6658;53.080;7.428;2023-07-31T14:27:49;21.20;99.90
13186;DHT22;6658;53.080;7.428;2023-07-31T14:30:17;21.50;99.90
13186;DHT22;6658;53.080;7.428;2023-07-31T14:33:13;21.50;99.90
13186;DHT22;6658;53.080;7.428;2023-07-31T14:35:38;21.30;99.90
13186;DHT22;6658;53.080;7.428;2023-07-31T14:38:04;21.40;99.90
13186;DHT22;6658;53.080;7.428;2023-07-31T14:40:29;21.20;99.90
13186;DHT22;6658;53.080;7.428;2023-07-31T14:42:55;21.20;99.90
13186;DHT22;6658;53.080;7.428;2023-07-31T14:45:21;21.30;99.90
13186;DHT22;6658;53.080;7.428;2023-07-31T14:47:46;21.20;99.90
13186;DHT22;6658;53.080;7.428;2023-07-31T14:50:12;21.10;99.90
13186;DHT22;6658;53.080;7.428;2023-07-31T14:52:38;21.10;99.90
13186;DHT22;6658;53.080;7.428;2023-07-31T14:55:04;21.00;99.90
13186;DHT22;6658;53.080;7.428;2023-07-31T14:57:30;21.00;99.90
13186;DHT22;6658;53.080;7.428;2023-07-31T14:59:56;21.10;99.90
13186;DHT22;6658;53.080;7.428;2023-07-31T15:02:22;21.20;99.90
13186;DHT22;6658;53.080;7.428;2023-07-31T15:04:55;21.30;99.90
13186;DHT22;6658;53.080;7.428;2023-07-31T15:07:21;21.40;99.90
13186;DHT22;6658;53.080;7.428;2023-07-31T15:09:47;21.40;99.90
13186;DHT22;6658;53.080;7.428;2023-07-31T15:12:15;21.40;99.90
13186;DHT22;6658;53.080;7.428;2023-07-31T15:14:41;21.30;99.90
13186;DHT22;6658;53.080;7.428;2023-07-31T15:17:07;21.20;99.90
13186;DHT22;6658;53.080;7.428;2023-07-31T15:19:35;21.10;99.90
13186;DHT22;6658;53.080;7.428;2023-07-31T15:22:21;21.00;99.90
13186;DHT22;6658;53.080;7.428;2023-07-31T15:24:47;21.00;99.90
13186;DHT22;6658;53.080;7.428;2023-07-31T15:27:14;20.90;99.90
13186;DHT22;6658;53.080;7.428;2023-07-31T15:29:40;20.80;99.90
13186;DHT22;6658;53.080;7.428;2023-07-31T15:32:12;20.70;99.90
13186;DHT22;6658;53.080;7.428;2023-07-31T15:34:38;20.70;99.90
13186;DHT22;6658;53.080;7.428;2023-07-31T15:37:03;20.70;99.90
13186;DHT22;6658;53.080;7.428;2023-07-31T15:39:29;20.70;99.90
13186;DHT22;6658;53.080;7.428;2023-07-31T15:41:55;20.70;99.90
13186;DHT22;6658;53.080;7.428;2023-07-31T15:44:21;20.70;99.90
13186;DHT22;6658;53.080;7.428;2023-07-31T15:46:47;20.60;99.90
13186;DHT22;6658;53.080;7.428;2023-07-31T15:49:13;20.70;99.90
13186;DHT22;6658;53.080;7.428;2023-07-31T15:51:55;20.70;99.90
13186;DHT22;6658;53.080;7.428;2023-07-31T15:54:40;20.70;99.90
13186;DHT22;6658;53.080;7.428;2023-07-31T15:57:06;20.70;99.90
13186;DHT22;6658;53.080;7.428;2023-07-31T15:59:38;20.80;99.90
13186;DHT22;6658;53.080;7.428;2023-07-31T16:02:04;20.70;99.90
13186;DHT22;6658;53.080;7.428;2023-07-31T16:04:33;20.70;99.90
13186;DHT22;6658;53.080;7.428;2023-07-31T16:07:22;20.70;99.90
13186;DHT22;6658;53.080;7.428;2023-07-31T16:09:49;20.70;99.90
13186;DHT22;6658;53.080;7.428;2023-07-31T16:12:14;20.70;99.90
13186;DHT22;6658;53.080;7.428;2023-07-31T16:14:49;20.70;99.90